Main page
METAR-TAF:

METAR-TAF

Airports :

Geraldton (Greenstone Regional) Airport

Greenstone, Ontario, Canada

latitude: 49-47N, longitude: 086-56W, elevation: 349 m

METAR: missing

Time: 15:21 (20:21 UTC)

Forecast

The report was made 37 minutes ago, at 19:44 UTC
Forecast valid from 01 at 20 UTC to 02 at 08 UTC
Wind 10 kt from the Southeast
Visibility: 10 km
Few clouds at a height of 2500 ft
Scattered clouds at a height of 20000 ft
Becoming
from 01 at 20 UTC to 01 at 22 UTC
Wind 12 kt from the South with gusts up to 22 kt
Becoming
from 01 at 23 UTC to 02 at 01 UTC
Wind 12 kt from the South

TAF: CYGQ 011944Z 0120/0208 14010KT P6SM FEW025 SCT200 BECMG 0120/0122 18012G22KT BECMG 0123/0201 18012KT RMK FCST BASED ON AUTO OBS. NXT FCST BY 020200Z

Weather observations and forecasts of more than 4000 airports (METAR and TAF reports).

The available stations are represented by yellow and red dots on the map.

Hover mouse over dot to see the name of the station.

Then click to see weather observations and forecasts.

To change the map : click on the green buttons with a black cross to zoom in, on the green button with a dash to zoom out, or on the green arrows for adjacent maps.


METAR-TAF: